createdAt,value
2019-02-15T00:01:12.841Z,13.20
2019-02-15T00:03:40.771Z,10.30
2019-02-15T00:06:08.351Z,9.80
2019-02-15T00:08:36.552Z,10.05
2019-02-15T00:11:05.668Z,9.80
2019-02-15T00:13:34.391Z,9.70
2019-02-15T00:16:02.632Z,10.18
2019-02-15T00:18:54.113Z,10.20
2019-02-15T00:21:25.681Z,11.90
2019-02-15T00:23:53.950Z,11.97
2019-02-15T00:26:22.014Z,11.90
2019-02-15T00:28:50.417Z,11.70
2019-02-15T00:31:20.142Z,11.70
2019-02-15T00:33:48.167Z,11.80
2019-02-15T00:36:16.297Z,10.95
2019-02-15T00:38:44.831Z,10.33
2019-02-15T00:41:13.966Z,10.60
2019-02-15T00:43:42.990Z,10.15
2019-02-15T00:46:30.870Z,10.60
2019-02-15T00:48:59.663Z,11.65
2019-02-15T00:52:05.523Z,11.20
2019-02-15T00:54:52.900Z,11.55
2019-02-15T00:57:41.420Z,10.55
2019-02-15T01:00:19.754Z,10.30
2019-02-15T01:02:59.040Z,10.40
2019-02-15T01:05:50.759Z,10.95
2019-02-15T01:08:37.369Z,11.17
2019-02-15T01:11:10.601Z,11.25
2019-02-15T01:13:39.111Z,10.15
2019-02-15T01:16:09.100Z,10.65
2019-02-15T01:18:38.351Z,10.55
2019-02-15T01:21:06.337Z,10.05
2019-02-15T01:23:34.308Z,10.20
2019-02-15T01:26:27.913Z,10.40
2019-02-15T01:29:05.947Z,11.40
2019-02-15T01:32:09.912Z,11.70
2019-02-15T01:35:00.938Z,11.20
2019-02-15T01:37:39.223Z,10.77
2019-02-15T01:40:13.089Z,9.95
2019-02-15T01:42:45.852Z,10.23
2019-02-15T01:45:33.630Z,10.30
2019-02-15T01:48:01.685Z,10.97
2019-02-15T01:50:30.124Z,10.95
2019-02-15T01:52:58.468Z,10.50
2019-02-15T01:55:27.644Z,11.70
2019-02-15T01:57:57.432Z,10.35
2019-02-15T02:00:29.526Z,10.50
2019-02-15T02:02:58.232Z,10.03
2019-02-15T02:05:26.888Z,9.55
2019-02-15T02:07:57.088Z,9.70
2019-02-15T02:10:26.345Z,9.50
2019-02-15T02:12:55.736Z,10.00
2019-02-15T02:15:24.533Z,9.20
2019-02-15T02:17:53.441Z,10.93
2019-02-15T02:20:22.056Z,10.93
2019-02-15T02:22:49.949Z,10.40
2019-02-15T02:25:18.119Z,10.98
2019-02-15T02:27:47.058Z,11.13
2019-02-15T02:30:16.137Z,10.50
2019-02-15T02:32:44.582Z,11.45
2019-02-15T02:35:12.720Z,9.55
2019-02-15T02:37:41.372Z,9.60
2019-02-15T02:40:09.551Z,9.70
2019-02-15T02:42:38.737Z,9.65
2019-02-15T02:45:06.831Z,9.40
2019-02-15T02:47:34.812Z,9.40
2019-02-15T02:50:04.653Z,9.80
2019-02-15T02:52:32.563Z,9.88
2019-02-15T02:55:00.796Z,10.10
2019-02-15T02:57:28.601Z,11.50
2019-02-15T02:59:56.777Z,10.40
2019-02-15T03:02:43.905Z,10.30
2019-02-15T03:05:12.143Z,10.80
2019-02-15T03:07:40.602Z,10.75
2019-02-15T03:10:08.982Z,9.90
2019-02-15T03:12:36.793Z,9.70
2019-02-15T03:15:05.108Z,10.13
2019-02-15T03:17:33.845Z,9.90
2019-02-15T03:20:02.122Z,9.65
2019-02-15T03:22:29.899Z,9.27
2019-02-15T03:24:58.705Z,9.70
2019-02-15T03:27:27.849Z,9.70
2019-02-15T03:29:56.499Z,9.40
2019-02-15T03:32:25.680Z,10.25
2019-02-15T03:34:53.973Z,11.90
2019-02-15T03:37:54.589Z,11.70
2019-02-15T03:40:33.086Z,10.77
2019-02-15T03:43:01.284Z,9.07
2019-02-15T03:45:29.947Z,9.65
2019-02-15T03:47:58.441Z,9.45
2019-02-15T03:50:29.049Z,9.90
2019-02-15T03:52:57.356Z,10.03
2019-02-15T03:55:26.057Z,9.00
2019-02-15T03:57:54.168Z,9.30
2019-02-15T04:00:21.940Z,10.40
2019-02-15T04:02:50.592Z,9.90
2019-02-15T04:05:18.654Z,11.53
2019-02-15T04:07:47.603Z,11.00
2019-02-15T04:10:15.509Z,11.13
2019-02-15T04:12:43.599Z,11.15
2019-02-15T04:15:11.702Z,11.07
2019-02-15T04:17:39.342Z,9.90
2019-02-15T04:20:08.486Z,9.97
2019-02-15T04:22:36.536Z,9.10
2019-02-15T04:25:04.610Z,9.57
2019-02-15T04:27:32.855Z,8.95
2019-02-15T04:30:01.286Z,8.60
2019-02-15T04:32:29.078Z,9.10
2019-02-15T04:34:57.561Z,9.33
2019-02-15T04:37:26.055Z,8.90
2019-02-15T04:39:54.386Z,10.07
2019-02-15T04:43:59.388Z,8.90
2019-02-15T04:46:27.450Z,9.10
2019-02-15T04:48:55.006Z,10.00
2019-02-15T04:51:22.237Z,9.20
2019-02-15T04:53:50.056Z,9.15
2019-02-15T04:56:17.351Z,8.97
2019-02-15T04:58:45.210Z,10.05
2019-02-15T05:01:12.909Z,10.00
2019-02-15T05:03:41.236Z,10.55
2019-02-15T05:06:09.734Z,10.70
2019-02-15T05:08:37.670Z,10.20
2019-02-15T05:11:06.306Z,11.30
2019-02-15T05:13:35.387Z,10.70
2019-02-15T05:16:03.491Z,10.38
2019-02-15T05:18:32.344Z,9.50
2019-02-15T05:21:00.885Z,9.97
2019-02-15T05:23:29.024Z,9.07
2019-02-15T05:25:57.375Z,8.97
2019-02-15T05:28:25.662Z,8.90
2019-02-15T05:30:53.905Z,8.45
2019-02-15T05:33:21.873Z,8.80
2019-02-15T05:35:50.059Z,8.80
2019-02-15T05:38:18.424Z,9.50
2019-02-15T05:40:46.400Z,9.00
2019-02-15T05:43:14.467Z,10.67
2019-02-15T05:45:43.603Z,10.33
2019-02-15T05:48:11.389Z,10.03
2019-02-15T05:50:39.350Z,10.00
2019-02-15T05:53:07.658Z,10.15
2019-02-15T05:55:35.930Z,10.30
2019-02-15T05:58:04.167Z,10.03
2019-02-15T06:00:37.085Z,10.15
2019-02-15T06:03:02.453Z,8.95
2019-02-15T06:05:30.685Z,9.30
2019-02-15T06:07:58.550Z,8.50
2019-02-15T06:10:26.734Z,8.93
2019-02-15T06:12:54.883Z,8.45
2019-02-15T06:15:23.036Z,9.20
2019-02-15T06:17:51.353Z,8.65
2019-02-15T06:20:19.616Z,8.75
2019-02-15T06:22:48.644Z,10.20
2019-02-15T06:25:17.939Z,10.47
2019-02-15T06:27:46.267Z,10.40
2019-02-15T06:30:14.621Z,10.87
2019-02-15T06:32:42.920Z,9.80
2019-02-15T06:35:13.192Z,10.60
2019-02-15T06:37:41.243Z,11.60
2019-02-15T06:40:09.260Z,10.05
2019-02-15T06:42:37.805Z,9.10
2019-02-15T06:45:05.896Z,8.63
2019-02-15T06:47:33.889Z,9.10
2019-02-15T06:50:01.929Z,9.10
2019-02-15T06:52:30.048Z,8.60
2019-02-15T06:54:58.052Z,9.30
2019-02-15T06:57:26.793Z,9.37
2019-02-15T07:00:30.135Z,8.90
2019-02-15T07:03:04.689Z,10.08
2019-02-15T07:05:35.032Z,10.35
2019-02-15T07:08:03.749Z,9.60
2019-02-15T07:10:31.979Z,10.40
2019-02-15T07:13:01.178Z,9.70
2019-02-15T07:15:33.695Z,9.00
2019-02-15T07:17:59.398Z,8.60
2019-02-15T07:20:27.681Z,8.80
2019-02-15T07:22:56.572Z,8.45
2019-02-15T07:25:24.903Z,8.63
2019-02-15T07:27:54.090Z,8.53
2019-02-15T07:30:23.519Z,8.80
2019-02-15T07:32:52.603Z,9.55
2019-02-15T07:35:20.789Z,8.90
2019-02-15T07:37:49.870Z,9.65
2019-02-15T07:40:18.163Z,10.95
2019-02-15T07:44:34.532Z,10.75
2019-02-15T07:48:13.741Z,8.90
2019-02-15T07:50:41.175Z,8.60
2019-02-15T07:53:09.215Z,8.75
2019-02-15T07:55:36.461Z,8.30
2019-02-15T07:58:05.139Z,9.60
2019-02-15T08:00:32.934Z,8.70
2019-02-15T08:03:01.093Z,9.40
2019-02-15T08:05:29.149Z,9.93
2019-02-15T08:07:58.167Z,9.90
2019-02-15T08:10:26.835Z,10.35
2019-02-15T08:12:55.280Z,11.10
2019-02-15T08:15:23.207Z,11.00
2019-02-15T08:17:51.588Z,10.20
2019-02-15T08:20:19.465Z,9.65
2019-02-15T08:22:48.237Z,9.20
2019-02-15T08:25:16.852Z,9.43
2019-02-15T08:27:45.930Z,8.40
2019-02-15T08:30:14.860Z,9.45
2019-02-15T08:32:42.778Z,8.90
2019-02-15T08:35:10.997Z,8.85
2019-02-15T08:37:39.742Z,8.70
2019-02-15T08:40:08.725Z,8.20
2019-02-15T08:42:37.446Z,8.43
2019-02-15T08:45:07.890Z,8.55
2019-02-15T08:47:36.501Z,9.15
2019-02-15T08:50:04.971Z,8.25
2019-02-15T08:52:33.729Z,8.80
2019-02-15T08:55:01.944Z,9.30
2019-02-15T08:57:31.133Z,8.05
2019-02-15T08:59:59.600Z,9.10
2019-02-15T09:02:27.885Z,9.37
2019-02-15T09:04:57.053Z,8.87
2019-02-15T09:07:25.062Z,8.70
2019-02-15T09:09:54.102Z,8.28
2019-02-15T09:12:22.232Z,8.20
2019-02-15T09:14:50.476Z,8.25
2019-02-15T09:17:18.775Z,9.70
2019-02-15T09:19:47.091Z,9.40
2019-02-15T09:22:15.135Z,9.40
2019-02-15T09:24:43.391Z,9.20
2019-02-15T09:27:23.722Z,9.10
2019-02-15T09:29:53.430Z,8.05
2019-02-15T09:32:23.274Z,9.20
2019-02-15T09:34:51.539Z,10.65
2019-02-15T09:37:19.552Z,10.00
2019-02-15T09:42:28.651Z,8.60
2019-02-15T09:44:56.202Z,8.55
2019-02-15T09:47:23.970Z,8.60
2019-02-15T09:49:51.841Z,8.50
2019-02-15T09:52:19.423Z,9.35
2019-02-15T09:54:47.453Z,8.35
2019-02-15T09:57:14.745Z,8.70
2019-02-15T09:59:42.602Z,8.60
2019-02-15T10:02:10.544Z,8.80
2019-02-15T10:04:38.951Z,8.50
2019-02-15T10:07:07.073Z,8.20
2019-02-15T10:09:35.398Z,7.65
2019-02-15T10:12:04.642Z,8.10
2019-02-15T10:14:33.475Z,8.55
2019-02-15T10:17:02.107Z,8.75
2019-02-15T10:19:30.513Z,8.37
2019-02-15T10:22:00.263Z,8.50
2019-02-15T10:24:29.072Z,7.85
2019-02-15T10:26:57.444Z,7.57
2019-02-15T10:29:25.288Z,8.53
2019-02-15T10:31:53.910Z,8.50
2019-02-15T10:34:21.730Z,8.17
2019-02-15T10:36:50.357Z,7.53
2019-02-15T10:39:18.383Z,6.70
2019-02-15T10:41:47.497Z,7.50
2019-02-15T10:44:15.688Z,8.85
2019-02-15T10:46:44.663Z,8.50
2019-02-15T10:49:13.136Z,7.80
2019-02-15T10:51:43.064Z,7.30
2019-02-15T10:54:10.806Z,11.00
2019-02-15T10:56:38.871Z,10.80
2019-02-15T10:59:07.149Z,11.25
2019-02-15T11:01:36.742Z,12.00
2019-02-15T11:04:05.709Z,12.00
2019-02-15T11:06:33.646Z,11.60
2019-02-15T11:09:02.303Z,9.80
2019-02-15T11:11:31.082Z,10.90
2019-02-15T11:14:00.242Z,11.15
2019-02-15T11:16:28.556Z,10.50
2019-02-15T11:18:57.242Z,11.80
2019-02-15T11:21:25.511Z,11.10
2019-02-15T11:23:54.224Z,11.40
2019-02-15T11:26:24.974Z,10.00
2019-02-15T11:28:53.424Z,10.13
2019-02-15T11:31:22.205Z,10.73
2019-02-15T11:33:50.589Z,13.70
2019-02-15T11:36:20.229Z,12.47
2019-02-15T11:38:48.477Z,12.03
2019-02-15T11:41:16.541Z,12.80
2019-02-15T11:43:45.690Z,12.40
2019-02-15T11:46:14.547Z,11.90
2019-02-15T11:48:43.305Z,12.80
2019-02-15T11:51:13.176Z,12.10
2019-02-15T11:53:41.289Z,10.50
2019-02-15T11:56:09.491Z,11.20
2019-02-15T11:58:38.403Z,11.40
2019-02-15T12:01:06.585Z,12.20
2019-02-15T12:03:35.058Z,11.90
2019-02-15T12:06:03.906Z,12.10
2019-02-15T12:08:31.925Z,12.20
2019-02-15T12:10:59.998Z,11.40
2019-02-15T12:13:28.570Z,12.17
2019-02-15T12:15:57.390Z,12.53
2019-02-15T12:18:25.091Z,11.90
2019-02-15T12:20:53.698Z,11.00
2019-02-15T12:23:21.944Z,10.50
2019-02-15T12:25:49.886Z,11.70
2019-02-15T12:28:18.124Z,12.15
2019-02-15T12:30:47.970Z,10.85
2019-02-15T12:33:17.041Z,11.77
2019-02-15T12:35:45.289Z,10.60
2019-02-15T12:38:12.770Z,11.30
2019-02-15T12:40:40.852Z,10.00
2019-02-15T12:43:09.061Z,10.00
2019-02-15T12:45:37.576Z,10.70
2019-02-15T12:48:05.796Z,10.20
2019-02-15T12:50:34.231Z,9.70
2019-02-15T12:53:02.173Z,10.20
2019-02-15T12:55:30.998Z,10.10
2019-02-15T12:57:59.620Z,10.00
2019-02-15T13:00:28.467Z,11.20
2019-02-15T13:02:56.628Z,10.80
2019-02-15T13:05:24.782Z,10.80
2019-02-15T13:07:52.802Z,9.90
2019-02-15T13:10:23.162Z,9.50
2019-02-15T13:12:51.127Z,10.40
2019-02-15T13:15:18.937Z,10.90
2019-02-15T13:17:49.095Z,10.50
2019-02-15T13:20:17.751Z,10.10
2019-02-15T13:22:47.383Z,10.20
2019-02-15T13:25:15.614Z,9.75
2019-02-15T13:27:45.108Z,9.65
2019-02-15T13:30:13.061Z,9.40
2019-02-15T13:32:41.836Z,9.77
2019-02-15T13:35:11.747Z,9.40
2019-02-15T13:37:39.814Z,9.15
2019-02-15T13:40:08.497Z,9.50
2019-02-15T13:42:36.630Z,8.73
2019-02-15T13:45:05.392Z,8.20
2019-02-15T13:47:35.210Z,9.00
2019-02-15T13:50:04.289Z,10.40
2019-02-15T13:52:32.281Z,9.50
2019-02-15T13:55:00.539Z,10.70
2019-02-15T13:57:28.838Z,11.35
2019-02-15T13:59:57.208Z,10.30
2019-02-15T14:02:25.218Z,10.40
2019-02-15T14:04:55.404Z,11.75
2019-02-15T14:07:23.437Z,9.53
2019-02-15T14:09:52.311Z,9.10
2019-02-15T14:12:20.297Z,8.90
2019-02-15T14:14:49.931Z,8.45
2019-02-15T14:17:18.241Z,10.10
2019-02-15T14:19:47.425Z,9.90
2019-02-15T14:22:15.731Z,9.50
2019-02-15T14:24:43.744Z,8.87
2019-02-15T14:27:11.883Z,9.18
2019-02-15T14:29:39.740Z,8.60
2019-02-15T14:32:09.028Z,8.90
2019-02-15T14:34:38.013Z,8.83
2019-02-15T14:37:06.019Z,7.93
2019-02-15T14:39:34.925Z,7.75
2019-02-15T14:42:02.633Z,8.00
2019-02-15T14:44:31.428Z,8.10
2019-02-15T14:46:59.440Z,8.60
2019-02-15T14:49:28.833Z,12.90
2019-02-15T14:51:56.766Z,10.10
2019-02-15T14:54:24.903Z,8.25
2019-02-15T14:56:53.409Z,6.60
2019-02-15T14:59:21.793Z,5.33
2019-02-15T15:01:50.386Z,4.63
2019-02-15T15:04:19.186Z,4.40
2019-02-15T15:06:47.152Z,3.50
2019-02-15T15:09:15.682Z,4.40
2019-02-15T15:11:43.635Z,3.13
2019-02-15T15:14:11.869Z,3.37
2019-02-15T15:16:39.986Z,3.65
2019-02-15T15:19:11.057Z,3.30
2019-02-15T15:21:39.153Z,3.10
2019-02-15T15:24:09.043Z,3.03
2019-02-15T15:26:37.492Z,3.20
2019-02-15T15:29:05.649Z,3.70
2019-02-15T15:31:34.144Z,3.70
2019-02-15T15:34:04.617Z,3.60
2019-02-15T15:36:33.307Z,4.30
2019-02-15T15:39:02.451Z,3.25
2019-02-15T15:41:30.997Z,4.10
2019-02-15T15:44:03.608Z,4.30
2019-02-15T15:46:32.328Z,4.50
2019-02-15T15:49:00.341Z,4.95
2019-02-15T15:51:28.146Z,4.05
2019-02-15T15:53:56.772Z,4.10
2019-02-15T15:56:24.848Z,4.73
2019-02-15T15:58:53.267Z,5.10
2019-02-15T16:01:23.073Z,4.30
2019-02-15T16:03:51.257Z,4.25
2019-02-15T16:06:24.474Z,3.80
2019-02-15T16:08:49.546Z,3.98
2019-02-15T16:11:17.767Z,4.60
2019-02-15T16:13:46.754Z,4.17
2019-02-15T16:16:15.486Z,3.75
2019-02-15T16:18:44.839Z,4.35
2019-02-15T16:22:02.583Z,4.70
2019-02-15T16:24:28.885Z,5.00
2019-02-15T16:26:56.448Z,4.90
2019-02-15T16:29:26.006Z,4.10
2019-02-15T16:31:53.967Z,4.70
2019-02-15T16:34:22.188Z,4.20
2019-02-15T16:36:49.962Z,4.10
2019-02-15T16:39:18.171Z,5.07
2019-02-15T16:41:47.146Z,4.60
2019-02-15T16:44:16.985Z,3.97
2019-02-15T16:46:45.893Z,5.23
2019-02-15T16:49:14.186Z,4.13
2019-02-15T16:51:42.082Z,4.97
2019-02-15T16:54:11.861Z,4.47
2019-02-15T16:56:39.590Z,4.20
2019-02-15T16:59:07.347Z,4.60
2019-02-15T17:01:35.335Z,4.45
2019-02-15T17:04:03.009Z,5.50
2019-02-15T17:06:30.850Z,4.85
2019-02-15T17:08:58.522Z,4.93
2019-02-15T17:11:26.946Z,4.80
2019-02-15T17:13:54.900Z,4.83
2019-02-15T17:16:23.075Z,4.47
2019-02-15T17:18:52.246Z,5.20
2019-02-15T17:21:20.985Z,4.85
2019-02-15T17:23:49.248Z,4.83
2019-02-15T17:26:17.550Z,5.77
2019-02-15T17:28:45.995Z,4.90
2019-02-15T17:31:14.066Z,5.35
2019-02-15T17:33:41.797Z,4.72
2019-02-15T17:36:09.783Z,5.45
2019-02-15T17:38:37.980Z,5.40
2019-02-15T17:41:06.046Z,5.97
2019-02-15T17:43:34.015Z,5.47
2019-02-15T17:46:02.472Z,5.58
2019-02-15T17:48:30.536Z,5.30
2019-02-15T17:50:58.551Z,5.30
2019-02-15T17:53:26.135Z,5.08
2019-02-15T17:55:54.906Z,5.75
2019-02-15T17:58:23.345Z,5.75
2019-02-15T18:00:51.825Z,5.30
2019-02-15T18:03:19.472Z,4.85
2019-02-15T18:05:47.159Z,4.93
2019-02-15T18:08:15.415Z,5.80
2019-02-15T18:10:42.955Z,5.55
2019-02-15T18:13:10.501Z,5.90
2019-02-15T18:15:38.884Z,5.55
2019-02-15T18:18:06.544Z,5.70
2019-02-15T18:20:34.375Z,4.95
2019-02-15T18:23:02.759Z,5.45
2019-02-15T18:25:30.407Z,5.47
2019-02-15T18:27:59.641Z,5.30
2019-02-15T18:30:28.976Z,5.80
2019-02-15T18:32:56.898Z,5.57
2019-02-15T18:35:24.912Z,5.90
2019-02-15T18:37:54.053Z,5.80
2019-02-15T18:40:22.060Z,6.40
2019-02-15T18:42:50.650Z,5.63
2019-02-15T18:45:18.364Z,6.10
2019-02-15T18:47:46.067Z,6.10
2019-02-15T18:50:14.258Z,6.63
2019-02-15T18:52:41.933Z,6.07
2019-02-15T18:55:11.654Z,5.80
2019-02-15T18:57:39.410Z,5.80
2019-02-15T19:00:10.574Z,6.03
2019-02-15T19:02:40.259Z,5.17
2019-02-15T19:05:10.036Z,6.07
2019-02-15T19:07:37.852Z,5.60
2019-02-15T19:10:07.731Z,5.80
2019-02-15T19:12:35.882Z,5.77
2019-02-15T19:15:04.121Z,5.80
2019-02-15T19:17:32.847Z,6.00
2019-02-15T19:20:00.542Z,6.30
2019-02-15T19:22:28.666Z,6.35
2019-02-15T19:24:56.946Z,6.00
2019-02-15T19:27:25.047Z,6.20
2019-02-15T19:29:53.616Z,6.25
2019-02-15T19:32:25.046Z,6.10
2019-02-15T19:34:54.435Z,6.00
2019-02-15T19:37:22.394Z,5.93
2019-02-15T19:39:56.464Z,6.03
2019-02-15T19:42:24.417Z,5.60
2019-02-15T19:44:52.919Z,6.30
2019-02-15T19:47:20.804Z,5.62
2019-02-15T19:49:49.630Z,5.95
2019-02-15T19:52:18.827Z,5.70
2019-02-15T19:54:47.079Z,5.30
2019-02-15T19:57:15.555Z,6.03
2019-02-15T19:59:53.191Z,6.93
2019-02-15T20:02:13.493Z,6.85
2019-02-15T20:04:41.401Z,6.55
2019-02-15T20:07:10.001Z,6.85
2019-02-15T20:09:38.021Z,6.47
2019-02-15T20:12:05.442Z,7.57
2019-02-15T20:14:33.701Z,7.15
2019-02-15T20:17:01.751Z,6.97
2019-02-15T20:19:29.829Z,6.70
2019-02-15T20:21:58.302Z,6.80
2019-02-15T20:24:28.039Z,6.30
2019-02-15T20:26:56.365Z,7.20
2019-02-15T20:29:24.120Z,6.00
2019-02-15T20:31:52.211Z,6.25
2019-02-15T20:34:19.912Z,6.78
2019-02-15T20:36:47.550Z,6.58
2019-02-15T20:39:16.033Z,7.35
2019-02-15T20:41:43.440Z,6.87
2019-02-15T20:44:10.916Z,7.72
2019-02-15T20:46:38.783Z,7.40
2019-02-15T20:49:06.871Z,7.77
2019-02-15T20:51:34.457Z,7.62
2019-02-15T20:54:02.230Z,7.65
2019-02-15T20:56:30.169Z,7.28
2019-02-15T20:58:59.691Z,7.25
2019-02-15T21:01:27.750Z,8.33
2019-02-15T21:03:56.104Z,7.53
2019-02-15T21:06:24.126Z,8.05
2019-02-15T21:08:52.266Z,7.50
2019-02-15T21:11:20.607Z,7.50
2019-02-15T21:13:48.596Z,6.58
2019-02-15T21:16:16.807Z,7.25
2019-02-15T21:18:44.384Z,7.73
2019-02-15T21:21:12.104Z,8.27
2019-02-15T21:23:40.072Z,7.40
2019-02-15T21:26:08.369Z,8.10
2019-02-15T21:28:36.009Z,7.20
2019-02-15T21:31:04.359Z,8.25
2019-02-15T21:33:32.118Z,7.65
2019-02-15T21:36:00.518Z,7.90
2019-02-15T21:38:28.181Z,7.60
2019-02-15T21:40:56.009Z,7.10
2019-02-15T21:43:23.553Z,6.42
2019-02-15T21:45:52.421Z,7.05
2019-02-15T21:48:21.789Z,6.45
2019-02-15T21:50:49.598Z,6.57
2019-02-15T21:53:18.907Z,7.20
2019-02-15T21:55:47.050Z,7.67
2019-02-15T21:58:15.553Z,7.72
2019-02-15T22:00:43.724Z,9.00
2019-02-15T22:03:11.780Z,9.48
2019-02-15T22:05:39.617Z,9.90
2019-02-15T22:08:08.430Z,9.80
2019-02-15T22:10:37.947Z,9.87
2019-02-15T22:13:06.547Z,8.93
2019-02-15T22:15:34.918Z,9.27
2019-02-15T22:18:04.013Z,9.27
2019-02-15T22:20:31.566Z,8.03
2019-02-15T22:23:00.755Z,7.77
2019-02-15T22:25:29.995Z,7.90
2019-02-15T22:27:59.140Z,8.13
2019-02-15T22:30:26.950Z,8.38
2019-02-15T22:32:54.696Z,8.07
2019-02-15T22:35:23.591Z,7.93
2019-02-15T22:37:52.334Z,8.57
2019-02-15T22:40:37.946Z,8.05
2019-02-15T22:43:16.267Z,8.57
2019-02-15T22:45:44.787Z,8.28
2019-02-15T22:48:14.064Z,8.30
2019-02-15T22:50:42.006Z,8.80
2019-02-15T22:53:09.588Z,7.90
2019-02-15T22:55:38.026Z,7.70
2019-02-15T22:58:06.133Z,8.13
2019-02-15T23:01:01.878Z,7.35
2019-02-15T23:03:31.396Z,8.60
2019-02-15T23:05:59.431Z,9.23
2019-02-15T23:08:27.661Z,9.15
2019-02-15T23:10:55.326Z,9.30
2019-02-15T23:13:23.503Z,8.83
2019-02-15T23:15:51.995Z,8.93
2019-02-15T23:18:20.368Z,9.27
2019-02-15T23:20:49.159Z,9.35
2019-02-15T23:23:19.054Z,8.33
2019-02-15T23:25:46.972Z,8.65
2019-02-15T23:28:14.688Z,8.35
2019-02-15T23:30:42.862Z,8.53
2019-02-15T23:33:12.554Z,8.03
2019-02-15T23:35:40.887Z,8.35
2019-02-15T23:38:09.556Z,8.20
2019-02-15T23:40:37.918Z,7.60
2019-02-15T23:43:06.938Z,7.75
2019-02-15T23:45:36.429Z,7.70
2019-02-15T23:48:04.523Z,7.92
2019-02-15T23:50:32.449Z,8.60
2019-02-15T23:53:00.244Z,8.90
2019-02-15T23:55:28.978Z,9.20
2019-02-15T23:57:57.595Z,8.27
